Promised Land, South Carolina
Current Conditions -  °F | °C
As of 9:56 AM on Saturday 20 Dec 2014 (Local Time) from KGRD Reporting Station
Light Rain Light Rain  
Wind Chill: 42°   Ceiling: 400
Heat Index: 44°   Visibility: 5mi
Dew Point: 42°   Wind: 5mph
Humidity: 93%   Direction: 40°NE
Pressure: 30.25"   Gusts: NA
Location:  34.036°N, 82.2186°W
Report Text: KGRD 201456Z AUTO 04004KT 5SM -RA BR BKN004 OVC018 07/06 A3025 RMK AO2 CIG 003V007 SLP244 P0002 60005 T00670056 53015
Loading
Personal Weather Stations






























Interactive Weather Map New forecast layout! Learn more

10-Day Weather Forecast

Advertisements
Track Severe Weather on mobile